sensor_id;sensor_type;location;lat;lon;timestamp;temperature;humidity
12893;DHT22;6514;48.606;9.222;2023-05-10T00:01:34;13.40;99.90
12893;DHT22;6514;48.606;9.222;2023-05-10T00:04:01;13.40;99.90
12893;DHT22;6514;48.606;9.222;2023-05-10T00:06:28;13.40;99.90
12893;DHT22;6514;48.606;9.222;2023-05-10T00:08:57;13.40;99.90
12893;DHT22;6514;48.606;9.222;2023-05-10T00:11:24;13.40;99.90
12893;DHT22;6514;48.606;9.222;2023-05-10T00:13:50;13.40;99.90
12893;DHT22;6514;48.606;9.222;2023-05-10T00:16:17;13.40;99.90
12893;DHT22;6514;48.606;9.222;2023-05-10T00:18:44;13.40;99.90
12893;DHT22;6514;48.606;9.222;2023-05-10T00:21:11;13.40;99.90
12893;DHT22;6514;48.606;9.222;2023-05-10T00:23:38;13.40;99.90
12893;DHT22;6514;48.606;9.222;2023-05-10T00:26:06;13.40;99.90
12893;DHT22;6514;48.606;9.222;2023-05-10T00:28:33;13.30;99.90
12893;DHT22;6514;48.606;9.222;2023-05-10T00:31:00;13.40;99.90
12893;DHT22;6514;48.606;9.222;2023-05-10T00:33:27;13.40;99.90
12893;DHT22;6514;48.606;9.222;2023-05-10T00:35:54;13.30;99.90
12893;DHT22;6514;48.606;9.222;2023-05-10T00:38:21;13.30;99.90
12893;DHT22;6514;48.606;9.222;2023-05-10T00:40:48;13.30;99.90
12893;DHT22;6514;48.606;9.222;2023-05-10T00:43:17;13.30;99.90
12893;DHT22;6514;48.606;9.222;2023-05-10T00:45:44;13.30;99.90
12893;DHT22;6514;48.606;9.222;2023-05-10T00:48:11;13.30;99.90
12893;DHT22;6514;48.606;9.222;2023-05-10T00:50:38;13.30;99.90
12893;DHT22;6514;48.606;9.222;2023-05-10T00:53:05;13.30;99.90
12893;DHT22;6514;48.606;9.222;2023-05-10T00:55:32;13.30;99.90
12893;DHT22;6514;48.606;9.222;2023-05-10T00:57:59;13.20;99.90
12893;DHT22;6514;48.606;9.222;2023-05-10T01:00:28;13.20;99.90
12893;DHT22;6514;48.606;9.222;2023-05-10T01:02:55;13.20;99.90
12893;DHT22;6514;48.606;9.222;2023-05-10T01:05:22;13.10;99.90
12893;DHT22;6514;48.606;9.222;2023-05-10T01:07:49;13.10;99.90
12893;DHT22;6514;48.606;9.222;2023-05-10T01:10:16;13.10;99.90
12893;DHT22;6514;48.606;9.222;2023-05-10T01:12:45;13.00;99.90
12893;DHT22;6514;48.606;9.222;2023-05-10T01:15:14;13.00;99.90
12893;DHT22;6514;48.606;9.222;2023-05-10T01:17:44;13.00;99.90
12893;DHT22;6514;48.606;9.222;2023-05-10T01:20:12;13.00;99.90
12893;DHT22;6514;48.606;9.222;2023-05-10T01:23:00;13.00;99.90
12893;DHT22;6514;48.606;9.222;2023-05-10T01:29:22;12.90;99.90
12893;DHT22;6514;48.606;9.222;2023-05-10T01:32:16;13.00;99.90
12893;DHT22;6514;48.606;9.222;2023-05-10T01:34:54;12.90;99.90
12893;DHT22;6514;48.606;9.222;2023-05-10T01:37:28;12.90;99.90
12893;DHT22;6514;48.606;9.222;2023-05-10T01:40:00;12.90;99.90
12893;DHT22;6514;48.606;9.222;2023-05-10T01:42:35;12.90;99.90
12893;DHT22;6514;48.606;9.222;2023-05-10T01:45:12;12.90;99.90
12893;DHT22;6514;48.606;9.222;2023-05-10T01:47:43;12.90;99.90
12893;DHT22;6514;48.606;9.222;2023-05-10T01:50:15;12.90;99.90
12893;DHT22;6514;48.606;9.222;2023-05-10T01:52:47;12.80;99.90
12893;DHT22;6514;48.606;9.222;2023-05-10T01:55:15;12.80;99.90
12893;DHT22;6514;48.606;9.222;2023-05-10T01:57:44;12.70;99.90
12893;DHT22;6514;48.606;9.222;2023-05-10T02:00:12;12.70;99.90
12893;DHT22;6514;48.606;9.222;2023-05-10T02:02:44;12.70;99.90
12893;DHT22;6514;48.606;9.222;2023-05-10T02:05:13;12.70;99.90
12893;DHT22;6514;48.606;9.222;2023-05-10T02:07:41;12.70;99.90
12893;DHT22;6514;48.606;9.222;2023-05-10T02:10:10;12.70;99.90
12893;DHT22;6514;48.606;9.222;2023-05-10T02:12:40;12.60;99.90
12893;DHT22;6514;48.606;9.222;2023-05-10T02:15:09;12.60;99.90
12893;DHT22;6514;48.606;9.222;2023-05-10T02:17:37;12.60;99.90
12893;DHT22;6514;48.606;9.222;2023-05-10T02:20:08;12.60;99.90
12893;DHT22;6514;48.606;9.222;2023-05-10T02:22:36;12.60;99.90
12893;DHT22;6514;48.606;9.222;2023-05-10T02:25:04;12.60;99.90
12893;DHT22;6514;48.606;9.222;2023-05-10T02:27:31;12.50;99.90
12893;DHT22;6514;48.606;9.222;2023-05-10T02:29:59;12.50;99.90
12893;DHT22;6514;48.606;9.222;2023-05-10T02:32:27;12.50;99.90
12893;DHT22;6514;48.606;9.222;2023-05-10T02:34:55;12.50;99.90
12893;DHT22;6514;48.606;9.222;2023-05-10T02:37:24;12.40;99.90
12893;DHT22;6514;48.606;9.222;2023-05-10T02:39:54;12.30;99.90
12893;DHT22;6514;48.606;9.222;2023-05-10T02:42:24;12.30;99.90
12893;DHT22;6514;48.606;9.222;2023-05-10T02:44:55;12.30;99.90
12893;DHT22;6514;48.606;9.222;2023-05-10T02:47:23;12.30;99.90
12893;DHT22;6514;48.606;9.222;2023-05-10T02:49:49;12.30;99.90
12893;DHT22;6514;48.606;9.222;2023-05-10T02:52:21;12.30;99.90
12893;DHT22;6514;48.606;9.222;2023-05-10T02:54:55;12.30;99.90
12893;DHT22;6514;48.606;9.222;2023-05-10T02:57:26;12.30;99.90
12893;DHT22;6514;48.606;9.222;2023-05-10T02:59:53;12.30;99.90
12893;DHT22;6514;48.606;9.222;2023-05-10T03:02:20;12.20;99.90
12893;DHT22;6514;48.606;9.222;2023-05-10T03:04:47;12.20;99.90
12893;DHT22;6514;48.606;9.222;2023-05-10T03:07:14;12.20;99.90
12893;DHT22;6514;48.606;9.222;2023-05-10T03:09:42;12.10;99.90
12893;DHT22;6514;48.606;9.222;2023-05-10T03:12:15;12.10;99.90
12893;DHT22;6514;48.606;9.222;2023-05-10T03:14:53;12.10;99.90
12893;DHT22;6514;48.606;9.222;2023-05-10T03:17:29;12.10;99.90
12893;DHT22;6514;48.606;9.222;2023-05-10T03:19:57;12.10;99.90
12893;DHT22;6514;48.606;9.222;2023-05-10T03:22:28;12.10;99.90
12893;DHT22;6514;48.606;9.222;2023-05-10T03:24:57;12.10;99.90
12893;DHT22;6514;48.606;9.222;2023-05-10T03:27:28;12.10;99.90
12893;DHT22;6514;48.606;9.222;2023-05-10T03:29:56;12.10;99.90
12893;DHT22;6514;48.606;9.222;2023-05-10T03:32:24;12.10;99.90
12893;DHT22;6514;48.606;9.222;2023-05-10T03:34:52;12.10;99.90
12893;DHT22;6514;48.606;9.222;2023-05-10T03:37:19;12.10;99.90
12893;DHT22;6514;48.606;9.222;2023-05-10T03:39:46;12.10;99.90
12893;DHT22;6514;48.606;9.222;2023-05-10T03:42:13;12.10;99.90
12893;DHT22;6514;48.606;9.222;2023-05-10T03:44:41;12.10;99.90
12893;DHT22;6514;48.606;9.222;2023-05-10T03:47:08;12.10;99.90
12893;DHT22;6514;48.606;9.222;2023-05-10T03:49:35;12.10;99.90
12893;DHT22;6514;48.606;9.222;2023-05-10T03:52:01;12.00;99.90
12893;DHT22;6514;48.606;9.222;2023-05-10T03:54:28;12.00;99.90
12893;DHT22;6514;48.606;9.222;2023-05-10T03:56:55;12.00;99.90
12893;DHT22;6514;48.606;9.222;2023-05-10T03:59:22;12.00;99.90
12893;DHT22;6514;48.606;9.222;2023-05-10T04:01:50;12.00;99.90
12893;DHT22;6514;48.606;9.222;2023-05-10T04:04:17;12.00;99.90
12893;DHT22;6514;48.606;9.222;2023-05-10T04:06:46;12.00;99.90
12893;DHT22;6514;48.606;9.222;2023-05-10T04:09:13;12.00;99.90
12893;DHT22;6514;48.606;9.222;2023-05-10T04:11:41;12.00;99.90
12893;DHT22;6514;48.606;9.222;2023-05-10T04:14:08;12.00;99.90
12893;DHT22;6514;48.606;9.222;2023-05-10T04:16:35;12.00;99.90
12893;DHT22;6514;48.606;9.222;2023-05-10T04:19:03;12.00;99.90
12893;DHT22;6514;48.606;9.222;2023-05-10T04:21:30;11.90;99.90
12893;DHT22;6514;48.606;9.222;2023-05-10T04:23:57;11.90;99.90
12893;DHT22;6514;48.606;9.222;2023-05-10T04:26:24;11.90;99.90
12893;DHT22;6514;48.606;9.222;2023-05-10T04:28:51;11.90;99.90
12893;DHT22;6514;48.606;9.222;2023-05-10T04:31:18;12.00;99.90
12893;DHT22;6514;48.606;9.222;2023-05-10T04:33:44;12.00;99.90
12893;DHT22;6514;48.606;9.222;2023-05-10T04:36:13;12.00;99.90
12893;DHT22;6514;48.606;9.222;2023-05-10T04:38:39;12.10;99.90
12893;DHT22;6514;48.606;9.222;2023-05-10T04:41:07;12.10;99.90
12893;DHT22;6514;48.606;9.222;2023-05-10T04:43:35;12.10;99.90
12893;DHT22;6514;48.606;9.222;2023-05-10T04:46:03;12.20;99.90
12893;DHT22;6514;48.606;9.222;2023-05-10T04:48:29;12.20;99.90
12893;DHT22;6514;48.606;9.222;2023-05-10T04:50:56;12.20;99.90
12893;DHT22;6514;48.606;9.222;2023-05-10T04:53:25;12.20;99.90
12893;DHT22;6514;48.606;9.222;2023-05-10T04:55:52;12.30;99.90
12893;DHT22;6514;48.606;9.222;2023-05-10T04:58:19;12.40;99.90
12893;DHT22;6514;48.606;9.222;2023-05-10T05:00:45;12.40;99.90
12893;DHT22;6514;48.606;9.222;2023-05-10T05:03:12;12.50;99.90
12893;DHT22;6514;48.606;9.222;2023-05-10T05:05:39;12.50;99.90
12893;DHT22;6514;48.606;9.222;2023-05-10T05:08:06;12.40;99.90
12893;DHT22;6514;48.606;9.222;2023-05-10T05:10:34;12.60;99.90
12893;DHT22;6514;48.606;9.222;2023-05-10T05:13:01;12.70;99.90
12893;DHT22;6514;48.606;9.222;2023-05-10T05:15:28;12.80;99.90
12893;DHT22;6514;48.606;9.222;2023-05-10T05:17:56;12.80;99.90
12893;DHT22;6514;48.606;9.222;2023-05-10T05:20:23;12.90;99.90
12893;DHT22;6514;48.606;9.222;2023-05-10T05:22:49;12.90;99.90
12893;DHT22;6514;48.606;9.222;2023-05-10T05:25:16;13.00;99.90
12893;DHT22;6514;48.606;9.222;2023-05-10T05:27:44;13.10;99.90
12893;DHT22;6514;48.606;9.222;2023-05-10T05:30:11;13.20;99.90
12893;DHT22;6514;48.606;9.222;2023-05-10T05:32:38;13.20;99.90
12893;DHT22;6514;48.606;9.222;2023-05-10T05:35:06;13.20;99.90
12893;DHT22;6514;48.606;9.222;2023-05-10T05:37:33;13.20;99.90
12893;DHT22;6514;48.606;9.222;2023-05-10T05:40:00;13.30;99.90
12893;DHT22;6514;48.606;9.222;2023-05-10T05:42:28;13.30;99.90
12893;DHT22;6514;48.606;9.222;2023-05-10T05:44:56;13.30;99.90
12893;DHT22;6514;48.606;9.222;2023-05-10T05:47:23;13.40;99.90
12893;DHT22;6514;48.606;9.222;2023-05-10T05:49:50;13.40;99.90
12893;DHT22;6514;48.606;9.222;2023-05-10T05:52:17;13.50;99.90
12893;DHT22;6514;48.606;9.222;2023-05-10T05:54:44;13.50;99.90
12893;DHT22;6514;48.606;9.222;2023-05-10T05:57:11;13.50;99.90
12893;DHT22;6514;48.606;9.222;2023-05-10T05:59:37;13.50;99.90
12893;DHT22;6514;48.606;9.222;2023-05-10T06:02:08;13.50;99.90
12893;DHT22;6514;48.606;9.222;2023-05-10T06:04:35;13.50;99.90
12893;DHT22;6514;48.606;9.222;2023-05-10T06:07:02;13.60;99.90
12893;DHT22;6514;48.606;9.222;2023-05-10T06:09:29;13.60;99.90
12893;DHT22;6514;48.606;9.222;2023-05-10T06:11:56;13.60;99.90
12893;DHT22;6514;48.606;9.222;2023-05-10T06:14:23;13.70;99.90
12893;DHT22;6514;48.606;9.222;2023-05-10T06:16:50;13.70;99.90
12893;DHT22;6514;48.606;9.222;2023-05-10T06:19:18;13.70;99.90
12893;DHT22;6514;48.606;9.222;2023-05-10T06:21:45;13.70;99.90
12893;DHT22;6514;48.606;9.222;2023-05-10T06:24:12;13.70;99.90
12893;DHT22;6514;48.606;9.222;2023-05-10T06:26:39;13.70;99.90
12893;DHT22;6514;48.606;9.222;2023-05-10T06:29:05;13.80;99.90
12893;DHT22;6514;48.606;9.222;2023-05-10T06:31:32;13.80;99.90
12893;DHT22;6514;48.606;9.222;2023-05-10T06:33:59;13.70;99.90
12893;DHT22;6514;48.606;9.222;2023-05-10T06:36:27;13.80;99.90
12893;DHT22;6514;48.606;9.222;2023-05-10T06:38:54;13.80;99.90
12893;DHT22;6514;48.606;9.222;2023-05-10T06:41:21;13.80;99.90
12893;DHT22;6514;48.606;9.222;2023-05-10T06:43:48;13.80;99.90
12893;DHT22;6514;48.606;9.222;2023-05-10T06:46:15;13.80;99.90
12893;DHT22;6514;48.606;9.222;2023-05-10T06:48:41;13.80;99.90
12893;DHT22;6514;48.606;9.222;2023-05-10T06:51:08;13.90;99.90
12893;DHT22;6514;48.606;9.222;2023-05-10T06:53:36;13.90;99.90
12893;DHT22;6514;48.606;9.222;2023-05-10T06:56:04;13.90;99.90
12893;DHT22;6514;48.606;9.222;2023-05-10T06:58:30;14.00;99.90
12893;DHT22;6514;48.606;9.222;2023-05-10T07:01:02;14.20;99.90
12893;DHT22;6514;48.606;9.222;2023-05-10T07:03:29;14.40;99.90
12893;DHT22;6514;48.606;9.222;2023-05-10T07:06:00;14.50;99.90
12893;DHT22;6514;48.606;9.222;2023-05-10T07:08:28;14.60;99.90
12893;DHT22;6514;48.606;9.222;2023-05-10T07:11:01;14.70;99.90
12893;DHT22;6514;48.606;9.222;2023-05-10T07:13:29;14.90;99.90
12893;DHT22;6514;48.606;9.222;2023-05-10T07:15:56;14.90;99.90
12893;DHT22;6514;48.606;9.222;2023-05-10T07:18:23;15.00;99.90
12893;DHT22;6514;48.606;9.222;2023-05-10T07:20:50;15.10;99.90
12893;DHT22;6514;48.606;9.222;2023-05-10T07:23:17;15.20;99.90
12893;DHT22;6514;48.606;9.222;2023-05-10T07:25:45;15.30;99.90
12893;DHT22;6514;48.606;9.222;2023-05-10T07:28:14;15.40;99.90
12893;DHT22;6514;48.606;9.222;2023-05-10T07:30:41;15.40;99.90
12893;DHT22;6514;48.606;9.222;2023-05-10T07:33:09;15.40;99.90
12893;DHT22;6514;48.606;9.222;2023-05-10T07:35:36;15.30;99.90
12893;DHT22;6514;48.606;9.222;2023-05-10T07:38:03;15.40;99.90
12893;DHT22;6514;48.606;9.222;2023-05-10T07:40:30;15.40;99.90
12893;DHT22;6514;48.606;9.222;2023-05-10T07:42:57;15.40;99.90
12893;DHT22;6514;48.606;9.222;2023-05-10T07:45:26;15.50;99.90
12893;DHT22;6514;48.606;9.222;2023-05-10T07:47:53;15.60;99.90
12893;DHT22;6514;48.606;9.222;2023-05-10T07:50:20;15.60;99.90
12893;DHT22;6514;48.606;9.222;2023-05-10T07:52:47;15.60;99.90
12893;DHT22;6514;48.606;9.222;2023-05-10T07:55:14;15.60;99.90
12893;DHT22;6514;48.606;9.222;2023-05-10T07:57:42;15.40;99.90
12893;DHT22;6514;48.606;9.222;2023-05-10T08:00:11;15.40;99.90
12893;DHT22;6514;48.606;9.222;2023-05-10T08:02:40;15.40;99.90
12893;DHT22;6514;48.606;9.222;2023-05-10T08:05:08;15.30;99.90
12893;DHT22;6514;48.606;9.222;2023-05-10T08:07:35;15.30;99.90
12893;DHT22;6514;48.606;9.222;2023-05-10T08:10:02;15.20;99.90
12893;DHT22;6514;48.606;9.222;2023-05-10T08:12:28;15.10;99.90
12893;DHT22;6514;48.606;9.222;2023-05-10T08:14:55;15.10;99.90
12893;DHT22;6514;48.606;9.222;2023-05-10T08:17:22;15.10;99.90
12893;DHT22;6514;48.606;9.222;2023-05-10T08:19:50;15.20;99.90
12893;DHT22;6514;48.606;9.222;2023-05-10T08:22:17;15.20;99.90
12893;DHT22;6514;48.606;9.222;2023-05-10T08:24:44;15.30;99.90
12893;DHT22;6514;48.606;9.222;2023-05-10T08:27:11;15.40;99.90
12893;DHT22;6514;48.606;9.222;2023-05-10T08:29:38;15.50;99.90
12893;DHT22;6514;48.606;9.222;2023-05-10T08:32:05;15.60;99.90
12893;DHT22;6514;48.606;9.222;2023-05-10T08:34:32;15.70;99.90
12893;DHT22;6514;48.606;9.222;2023-05-10T08:37:00;15.70;99.90
12893;DHT22;6514;48.606;9.222;2023-05-10T08:39:27;15.80;99.90
12893;DHT22;6514;48.606;9.222;2023-05-10T08:41:54;16.00;99.90
12893;DHT22;6514;48.606;9.222;2023-05-10T08:44:24;16.10;99.90
12893;DHT22;6514;48.606;9.222;2023-05-10T08:46:53;16.40;99.90
12893;DHT22;6514;48.606;9.222;2023-05-10T08:49:21;16.50;99.90
12893;DHT22;6514;48.606;9.222;2023-05-10T08:51:52;16.70;99.90
12893;DHT22;6514;48.606;9.222;2023-05-10T08:54:23;16.60;99.90
12893;DHT22;6514;48.606;9.222;2023-05-10T08:56:50;16.70;99.90
12893;DHT22;6514;48.606;9.222;2023-05-10T08:59:17;16.80;99.90
12893;DHT22;6514;48.606;9.222;2023-05-10T09:01:45;16.90;99.90
12893;DHT22;6514;48.606;9.222;2023-05-10T09:04:13;17.00;99.90
12893;DHT22;6514;48.606;9.222;2023-05-10T09:06:40;17.10;99.90
12893;DHT22;6514;48.606;9.222;2023-05-10T09:09:07;17.40;99.90
12893;DHT22;6514;48.606;9.222;2023-05-10T09:11:36;17.40;99.90
12893;DHT22;6514;48.606;9.222;2023-05-10T09:14:03;17.60;99.90
12893;DHT22;6514;48.606;9.222;2023-05-10T09:16:30;17.70;99.90
12893;DHT22;6514;48.606;9.222;2023-05-10T09:18:57;17.60;99.90
12893;DHT22;6514;48.606;9.222;2023-05-10T09:21:25;17.70;99.90
12893;DHT22;6514;48.606;9.222;2023-05-10T09:23:52;17.80;99.90
12893;DHT22;6514;48.606;9.222;2023-05-10T09:26:22;17.70;99.90
12893;DHT22;6514;48.606;9.222;2023-05-10T09:28:55;17.80;99.90
12893;DHT22;6514;48.606;9.222;2023-05-10T09:31:22;17.90;99.90
12893;DHT22;6514;48.606;9.222;2023-05-10T09:33:51;18.00;99.90
12893;DHT22;6514;48.606;9.222;2023-05-10T09:36:18;18.00;99.90
12893;DHT22;6514;48.606;9.222;2023-05-10T09:38:46;18.10;99.90
12893;DHT22;6514;48.606;9.222;2023-05-10T09:41:18;18.20;99.90
12893;DHT22;6514;48.606;9.222;2023-05-10T09:43:45;18.30;99.90
12893;DHT22;6514;48.606;9.222;2023-05-10T09:46:14;18.30;99.90
12893;DHT22;6514;48.606;9.222;2023-05-10T09:48:43;18.30;99.90
12893;DHT22;6514;48.606;9.222;2023-05-10T09:51:10;18.10;99.90
12893;DHT22;6514;48.606;9.222;2023-05-10T09:53:37;18.10;99.90
12893;DHT22;6514;48.606;9.222;2023-05-10T09:56:04;18.10;99.90
12893;DHT22;6514;48.606;9.222;2023-05-10T09:58:31;18.10;99.90
12893;DHT22;6514;48.606;9.222;2023-05-10T10:01:03;18.10;99.90
12893;DHT22;6514;48.606;9.222;2023-05-10T10:03:32;18.10;99.90
12893;DHT22;6514;48.606;9.222;2023-05-10T10:05:59;18.10;99.90
12893;DHT22;6514;48.606;9.222;2023-05-10T10:08:26;18.10;99.90
12893;DHT22;6514;48.606;9.222;2023-05-10T10:10:53;18.00;99.90
12893;DHT22;6514;48.606;9.222;2023-05-10T10:13:20;18.00;99.90
12893;DHT22;6514;48.606;9.222;2023-05-10T10:15:47;18.40;99.90
12893;DHT22;6514;48.606;9.222;2023-05-10T10:18:16;18.80;99.90
12893;DHT22;6514;48.606;9.222;2023-05-10T10:20:45;19.00;99.90
12893;DHT22;6514;48.606;9.222;2023-05-10T10:23:12;19.20;99.90
12893;DHT22;6514;48.606;9.222;2023-05-10T10:25:39;19.60;99.90
12893;DHT22;6514;48.606;9.222;2023-05-10T10:28:16;19.70;99.90
12893;DHT22;6514;48.606;9.222;2023-05-10T10:30:49;19.80;99.90
12893;DHT22;6514;48.606;9.222;2023-05-10T10:33:36;19.60;99.90
12893;DHT22;6514;48.606;9.222;2023-05-10T10:36:07;19.50;99.90
12893;DHT22;6514;48.606;9.222;2023-05-10T10:41:28;19.00;99.90
12893;DHT22;6514;48.606;9.222;2023-05-10T10:44:23;18.70;99.90
12893;DHT22;6514;48.606;9.222;2023-05-10T10:47:00;18.40;99.90
12893;DHT22;6514;48.606;9.222;2023-05-10T10:49:28;18.00;99.90
12893;DHT22;6514;48.606;9.222;2023-05-10T10:52:22;17.80;99.90
12893;DHT22;6514;48.606;9.222;2023-05-10T10:54:52;17.40;99.90
12893;DHT22;6514;48.606;9.222;2023-05-10T10:57:21;17.20;99.90
12893;DHT22;6514;48.606;9.222;2023-05-10T10:59:48;17.00;99.90
12893;DHT22;6514;48.606;9.222;2023-05-10T11:02:34;16.80;99.90
12893;DHT22;6514;48.606;9.222;2023-05-10T11:08:09;16.30;99.90
12893;DHT22;6514;48.606;9.222;2023-05-10T11:10:36;16.00;99.90
12893;DHT22;6514;48.606;9.222;2023-05-10T11:13:04;15.70;99.90
12893;DHT22;6514;48.606;9.222;2023-05-10T11:15:32;15.40;99.90
12893;DHT22;6514;48.606;9.222;2023-05-10T11:17:59;14.90;99.90
12893;DHT22;6514;48.606;9.222;2023-05-10T11:20:27;14.40;99.90
12893;DHT22;6514;48.606;9.222;2023-05-10T11:23:12;14.00;99.90
12893;DHT22;6514;48.606;9.222;2023-05-10T11:25:42;13.60;99.90
12893;DHT22;6514;48.606;9.222;2023-05-10T11:28:11;13.40;99.90
12893;DHT22;6514;48.606;9.222;2023-05-10T11:30:39;13.30;99.90
12893;DHT22;6514;48.606;9.222;2023-05-10T11:33:06;13.20;99.90
12893;DHT22;6514;48.606;9.222;2023-05-10T11:35:37;13.20;99.90
12893;DHT22;6514;48.606;9.222;2023-05-10T11:38:06;13.00;99.90
12893;DHT22;6514;48.606;9.222;2023-05-10T11:40:34;13.00;99.90
12893;DHT22;6514;48.606;9.222;2023-05-10T11:43:02;13.00;99.90
12893;DHT22;6514;48.606;9.222;2023-05-10T11:45:31;13.20;99.90
12893;DHT22;6514;48.606;9.222;2023-05-10T11:47:59;13.20;99.90
12893;DHT22;6514;48.606;9.222;2023-05-10T11:50:26;13.30;99.90
12893;DHT22;6514;48.606;9.222;2023-05-10T11:52:53;13.40;99.90
12893;DHT22;6514;48.606;9.222;2023-05-10T11:55:21;13.50;99.90
12893;DHT22;6514;48.606;9.222;2023-05-10T11:57:52;13.50;99.90
12893;DHT22;6514;48.606;9.222;2023-05-10T12:00:19;13.70;99.90
12893;DHT22;6514;48.606;9.222;2023-05-10T12:02:46;13.90;99.90
12893;DHT22;6514;48.606;9.222;2023-05-10T12:05:13;14.00;99.90
12893;DHT22;6514;48.606;9.222;2023-05-10T12:07:40;14.20;99.90
12893;DHT22;6514;48.606;9.222;2023-05-10T12:10:09;14.50;99.90
12893;DHT22;6514;48.606;9.222;2023-05-10T12:12:38;14.80;99.90
12893;DHT22;6514;48.606;9.222;2023-05-10T12:15:10;15.00;99.90
12893;DHT22;6514;48.606;9.222;2023-05-10T12:17:38;15.20;99.90
12893;DHT22;6514;48.606;9.222;2023-05-10T12:20:16;15.40;99.90
12893;DHT22;6514;48.606;9.222;2023-05-10T12:22:47;15.50;99.90
12893;DHT22;6514;48.606;9.222;2023-05-10T12:25:16;15.60;99.90
12893;DHT22;6514;48.606;9.222;2023-05-10T12:27:51;15.60;99.90
12893;DHT22;6514;48.606;9.222;2023-05-10T12:30:23;15.70;99.90
12893;DHT22;6514;48.606;9.222;2023-05-10T12:32:51;15.80;99.90
12893;DHT22;6514;48.606;9.222;2023-05-10T12:35:18;16.00;99.90
12893;DHT22;6514;48.606;9.222;2023-05-10T12:37:47;16.00;99.90
12893;DHT22;6514;48.606;9.222;2023-05-10T12:40:14;16.10;99.90
12893;DHT22;6514;48.606;9.222;2023-05-10T12:42:41;16.20;99.90
12893;DHT22;6514;48.606;9.222;2023-05-10T12:45:11;16.30;99.90
12893;DHT22;6514;48.606;9.222;2023-05-10T12:47:39;16.40;99.90
12893;DHT22;6514;48.606;9.222;2023-05-10T12:50:06;16.50;99.90
12893;DHT22;6514;48.606;9.222;2023-05-10T12:52:33;16.60;99.90
12893;DHT22;6514;48.606;9.222;2023-05-10T12:55:01;16.90;99.90
12893;DHT22;6514;48.606;9.222;2023-05-10T12:57:28;17.20;99.90
12893;DHT22;6514;48.606;9.222;2023-05-10T12:59:56;17.40;99.90
12893;DHT22;6514;48.606;9.222;2023-05-10T13:02:24;17.60;99.90
12893;DHT22;6514;48.606;9.222;2023-05-10T13:04:52;17.70;99.90
12893;DHT22;6514;48.606;9.222;2023-05-10T13:07:19;17.70;99.90
12893;DHT22;6514;48.606;9.222;2023-05-10T13:09:46;17.60;99.90
12893;DHT22;6514;48.606;9.222;2023-05-10T13:12:16;17.60;99.90
12893;DHT22;6514;48.606;9.222;2023-05-10T13:14:43;17.60;99.90
12893;DHT22;6514;48.606;9.222;2023-05-10T13:17:09;17.50;99.90
12893;DHT22;6514;48.606;9.222;2023-05-10T13:19:36;17.70;99.90
12893;DHT22;6514;48.606;9.222;2023-05-10T13:22:04;18.00;99.90
12893;DHT22;6514;48.606;9.222;2023-05-10T13:24:31;18.30;99.90
12893;DHT22;6514;48.606;9.222;2023-05-10T13:26:58;18.50;99.90
12893;DHT22;6514;48.606;9.222;2023-05-10T13:29:25;18.70;99.90
12893;DHT22;6514;48.606;9.222;2023-05-10T13:31:52;18.80;99.90
12893;DHT22;6514;48.606;9.222;2023-05-10T13:34:19;18.60;99.90
12893;DHT22;6514;48.606;9.222;2023-05-10T13:36:47;18.70;99.90
12893;DHT22;6514;48.606;9.222;2023-05-10T13:39:16;18.80;99.90
12893;DHT22;6514;48.606;9.222;2023-05-10T13:41:43;18.80;99.90
12893;DHT22;6514;48.606;9.222;2023-05-10T13:44:12;19.00;99.90
12893;DHT22;6514;48.606;9.222;2023-05-10T13:46:39;19.10;99.90
12893;DHT22;6514;48.606;9.222;2023-05-10T13:49:06;19.30;99.90
12893;DHT22;6514;48.606;9.222;2023-05-10T13:51:33;19.40;99.90
12893;DHT22;6514;48.606;9.222;2023-05-10T13:54:01;19.20;99.90
12893;DHT22;6514;48.606;9.222;2023-05-10T13:56:29;19.10;99.90
12893;DHT22;6514;48.606;9.222;2023-05-10T13:58:56;19.10;99.90
12893;DHT22;6514;48.606;9.222;2023-05-10T14:01:23;18.90;99.90
12893;DHT22;6514;48.606;9.222;2023-05-10T14:03:50;18.90;99.90
12893;DHT22;6514;48.606;9.222;2023-05-10T14:06:17;18.80;99.90
12893;DHT22;6514;48.606;9.222;2023-05-10T14:08:44;18.60;99.90
12893;DHT22;6514;48.606;9.222;2023-05-10T14:11:11;18.60;99.90
12893;DHT22;6514;48.606;9.222;2023-05-10T14:13:39;18.50;99.90
12893;DHT22;6514;48.606;9.222;2023-05-10T14:16:06;18.40;99.90
12893;DHT22;6514;48.606;9.222;2023-05-10T14:18:33;18.40;99.90
12893;DHT22;6514;48.606;9.222;2023-05-10T14:21:01;18.10;99.90
12893;DHT22;6514;48.606;9.222;2023-05-10T14:23:28;18.10;99.90
12893;DHT22;6514;48.606;9.222;2023-05-10T14:25:55;18.20;99.90
12893;DHT22;6514;48.606;9.222;2023-05-10T14:28:22;18.30;99.90
12893;DHT22;6514;48.606;9.222;2023-05-10T14:30:51;18.20;99.90
12893;DHT22;6514;48.606;9.222;2023-05-10T14:33:18;18.40;99.90
12893;DHT22;6514;48.606;9.222;2023-05-10T14:35:46;18.40;99.90
12893;DHT22;6514;48.606;9.222;2023-05-10T14:38:13;18.50;99.90
12893;DHT22;6514;48.606;9.222;2023-05-10T14:40:40;18.40;99.90
12893;DHT22;6514;48.606;9.222;2023-05-10T14:43:07;18.40;99.90
12893;DHT22;6514;48.606;9.222;2023-05-10T14:45:34;18.40;99.90
12893;DHT22;6514;48.606;9.222;2023-05-10T14:48:02;18.30;99.90
12893;DHT22;6514;48.606;9.222;2023-05-10T14:50:30;18.30;99.90
12893;DHT22;6514;48.606;9.222;2023-05-10T14:52:57;18.30;99.90
12893;DHT22;6514;48.606;9.222;2023-05-10T14:55:24;18.30;99.90
12893;DHT22;6514;48.606;9.222;2023-05-10T14:57:51;18.30;99.90
12893;DHT22;6514;48.606;9.222;2023-05-10T15:00:18;18.40;99.90
12893;DHT22;6514;48.606;9.222;2023-05-10T15:02:45;18.30;99.90
12893;DHT22;6514;48.606;9.222;2023-05-10T15:05:14;18.30;99.90
12893;DHT22;6514;48.606;9.222;2023-05-10T15:07:41;18.40;99.90
12893;DHT22;6514;48.606;9.222;2023-05-10T15:10:09;18.40;99.90
12893;DHT22;6514;48.606;9.222;2023-05-10T15:12:36;18.40;99.90
12893;DHT22;6514;48.606;9.222;2023-05-10T15:15:04;18.30;99.90
12893;DHT22;6514;48.606;9.222;2023-05-10T15:17:31;18.30;99.90
12893;DHT22;6514;48.606;9.222;2023-05-10T15:19:58;18.30;99.90
12893;DHT22;6514;48.606;9.222;2023-05-10T15:22:26;18.30;99.90
12893;DHT22;6514;48.606;9.222;2023-05-10T15:24:53;18.30;99.90
12893;DHT22;6514;48.606;9.222;2023-05-10T15:27:20;18.30;99.90
12893;DHT22;6514;48.606;9.222;2023-05-10T15:29:47;18.40;99.90
12893;DHT22;6514;48.606;9.222;2023-05-10T15:32:14;18.40;99.90
12893;DHT22;6514;48.606;9.222;2023-05-10T15:34:41;18.50;99.90
12893;DHT22;6514;48.606;9.222;2023-05-10T15:37:07;18.50;99.90
12893;DHT22;6514;48.606;9.222;2023-05-10T15:39:36;18.50;99.90
12893;DHT22;6514;48.606;9.222;2023-05-10T15:42:04;18.30;99.90
12893;DHT22;6514;48.606;9.222;2023-05-10T15:44:30;18.30;99.90
12893;DHT22;6514;48.606;9.222;2023-05-10T15:47:00;18.40;99.90
12893;DHT22;6514;48.606;9.222;2023-05-10T15:49:28;18.30;99.90
12893;DHT22;6514;48.606;9.222;2023-05-10T15:51:54;18.40;99.90
12893;DHT22;6514;48.606;9.222;2023-05-10T15:54:21;18.30;99.90
12893;DHT22;6514;48.606;9.222;2023-05-10T15:56:50;18.10;99.90
12893;DHT22;6514;48.606;9.222;2023-05-10T15:59:18;17.90;99.90
12893;DHT22;6514;48.606;9.222;2023-05-10T16:01:45;17.70;99.90